Archival Weather

Habib Bourguiba Intl

Habib Bourguiba Intl, Tunisia (DTMB)

Report from: Sunday, October 1, 2023 12:30 AM CET
Current time: Saturday, February 24, 2024 4:54 PM CET

Current weather – Weather history – Daily summaries
Weather forecast

Temperature24.0°C (75.2°F)
Dew point20.0°C (68.0°F)
Winds 7 kts (3.6 m/s, 8.1 mph) North (360°)
Visibility6.2 mi. (10 km)
Clouds Few clouds 3,000 ft. (914 m)
Altimeter30.18 in.Hg (1022 mB)
Relative humidity78 %
Density altitude1,067 ft. (325 m)
Flight conditions Visual Meteorological Conditions
Raw dataDTMB 302330Z 36007KT 9999 FEW030 24/20 Q1022
An error has occurred. This application may no longer respond until reloaded. Reload 🗙